createdAt,value
2023-04-27T00:00:13.339Z,60.66
2023-04-27T00:02:41.841Z,59.18
2023-04-27T00:05:11.109Z,58.88
2023-04-27T00:07:38.801Z,59.63
2023-04-27T00:10:09.318Z,58.93
2023-04-27T00:12:36.945Z,60.00
2023-04-27T00:15:05.034Z,60.59
2023-04-27T00:17:32.677Z,60.63
2023-04-27T00:20:00.540Z,60.35
2023-04-27T00:22:28.191Z,59.93
2023-04-27T00:24:55.880Z,60.65
2023-04-27T00:27:28.581Z,61.57
2023-04-27T00:29:56.462Z,61.00
2023-04-27T00:32:24.145Z,60.20
2023-04-27T00:34:51.756Z,60.63
2023-04-27T00:37:19.571Z,61.84
2023-04-27T00:39:47.232Z,61.36
2023-04-27T00:42:17.290Z,60.32
2023-04-27T00:44:46.650Z,61.54
2023-04-27T00:47:14.467Z,60.28
2023-04-27T00:49:42.287Z,61.47
2023-04-27T00:52:09.995Z,62.12
2023-04-27T00:54:37.811Z,60.99
2023-04-27T00:57:05.417Z,60.82
2023-04-27T00:59:33.136Z,61.76
2023-04-27T01:02:02.908Z,62.47
2023-04-27T01:04:32.545Z,62.99
2023-04-27T01:07:02.474Z,63.24
2023-04-27T01:09:30.191Z,63.93
2023-04-27T01:11:58.568Z,64.15
2023-04-27T01:14:26.299Z,64.33
2023-04-27T01:16:53.896Z,63.83
2023-04-27T01:19:23.447Z,63.44
2023-04-27T01:21:51.014Z,63.14
2023-04-27T01:24:20.053Z,63.29
2023-04-27T01:26:47.845Z,63.14
2023-04-27T01:29:15.672Z,64.26
2023-04-27T01:31:43.448Z,65.15
2023-04-27T01:34:11.793Z,64.67
2023-04-27T01:36:39.546Z,65.06
2023-04-27T01:39:09.335Z,64.38
2023-04-27T01:41:38.428Z,64.26
2023-04-27T01:44:06.572Z,65.02
2023-04-27T01:46:34.430Z,65.18
2023-04-27T01:49:02.038Z,64.18
2023-04-27T01:51:29.659Z,64.87
2023-04-27T01:53:57.408Z,64.55
2023-04-27T01:56:25.079Z,65.50
2023-04-27T01:58:55.289Z,64.21
2023-04-27T02:01:22.907Z,63.67
2023-04-27T02:03:50.784Z,63.40
2023-04-27T02:06:18.645Z,63.69
2023-04-27T02:08:46.244Z,64.04
2023-04-27T02:11:13.822Z,63.35
2023-04-27T02:13:41.481Z,62.71
2023-04-27T02:16:10.544Z,63.26
2023-04-27T02:18:38.356Z,63.32
2023-04-27T02:21:09.621Z,63.69
2023-04-27T02:23:37.310Z,64.56
2023-04-27T02:26:04.898Z,64.50
2023-04-27T02:28:32.947Z,65.45
2023-04-27T02:31:01.378Z,64.92
2023-04-27T02:33:30.699Z,65.16
2023-04-27T02:35:58.291Z,65.28
2023-04-27T02:38:25.988Z,65.55
2023-04-27T02:40:54.894Z,65.17
2023-04-27T02:43:22.604Z,65.23
2023-04-27T02:45:50.488Z,64.57
2023-04-27T02:48:18.155Z,65.44
2023-04-27T02:50:47.169Z,64.75
2023-04-27T02:53:15.443Z,64.96
2023-04-27T02:55:47.326Z,64.18
2023-04-27T02:58:14.860Z,64.38
2023-04-27T03:00:42.479Z,65.09
2023-04-27T03:03:10.550Z,65.54
2023-04-27T03:05:38.513Z,65.79
2023-04-27T03:08:07.488Z,65.31
2023-04-27T03:10:35.048Z,65.29
2023-04-27T03:13:02.960Z,66.84
2023-04-27T03:15:30.614Z,66.72
2023-04-27T03:17:58.475Z,65.48
2023-04-27T03:20:26.292Z,65.11
2023-04-27T03:22:53.801Z,65.57
2023-04-27T03:25:22.816Z,65.44
2023-04-27T03:27:50.783Z,65.37
2023-04-27T03:30:18.438Z,65.10
2023-04-27T03:32:47.755Z,65.09
2023-04-27T03:35:15.885Z,65.33
2023-04-27T03:37:45.850Z,66.14
2023-04-27T03:40:15.206Z,66.70
2023-04-27T03:42:44.284Z,66.47
2023-04-27T03:45:12.360Z,66.61
2023-04-27T03:47:40.252Z,66.65
2023-04-27T03:50:08.243Z,66.94
2023-04-27T03:52:35.814Z,67.02
2023-04-27T03:55:03.471Z,66.37
2023-04-27T03:57:31.119Z,66.79
2023-04-27T04:00:00.059Z,66.33
2023-04-27T04:02:28.058Z,66.50
2023-04-27T04:04:55.844Z,67.04
2023-04-27T04:07:23.853Z,66.30
2023-04-27T04:09:51.481Z,66.81
2023-04-27T04:12:19.022Z,66.07
2023-04-27T04:14:48.846Z,66.22
2023-04-27T04:17:18.131Z,66.12
2023-04-27T04:19:45.679Z,65.68
2023-04-27T04:22:14.202Z,65.70
2023-04-27T04:24:42.020Z,65.92
2023-04-27T04:27:09.654Z,65.25
2023-04-27T04:29:38.825Z,65.42
2023-04-27T04:32:07.327Z,66.02
2023-04-27T04:34:36.744Z,66.37
2023-04-27T04:37:04.513Z,65.65
2023-04-27T04:39:33.170Z,65.64
2023-04-27T04:42:00.851Z,65.56
2023-04-27T04:44:28.493Z,67.02
2023-04-27T04:46:56.203Z,66.85
2023-04-27T04:49:24.050Z,67.60
2023-04-27T04:51:53.071Z,67.24
2023-04-27T04:54:20.696Z,68.11
2023-04-27T04:56:49.311Z,68.17
2023-04-27T04:59:17.576Z,67.13
2023-04-27T05:01:45.160Z,64.32
2023-04-27T05:04:12.937Z,61.27
2023-04-27T05:06:40.787Z,59.31
2023-04-27T05:09:09.860Z,57.42
2023-04-27T05:11:37.789Z,56.38
2023-04-27T05:14:05.498Z,54.61
2023-04-27T05:16:33.135Z,54.30
2023-04-27T05:19:00.751Z,52.06
2023-04-27T05:21:28.362Z,51.08
2023-04-27T05:23:56.030Z,50.40
2023-04-27T05:26:25.265Z,49.73
2023-04-27T05:28:52.901Z,49.48
2023-04-27T05:31:20.522Z,48.38
2023-04-27T05:33:48.204Z,48.10
2023-04-27T05:36:15.977Z,46.26
2023-04-27T05:38:43.548Z,44.53
2023-04-27T05:41:11.426Z,41.82
2023-04-27T05:43:40.429Z,40.75
2023-04-27T05:46:08.542Z,39.45
2023-04-27T05:48:36.342Z,38.91
2023-04-27T05:51:05.741Z,39.03
2023-04-27T05:53:34.254Z,40.10
2023-04-27T05:56:04.284Z,37.53
2023-04-27T05:58:31.897Z,36.71
2023-04-27T06:01:01.778Z,36.69
2023-04-27T06:03:30.297Z,36.99
2023-04-27T06:05:59.389Z,36.21
2023-04-27T06:08:27.328Z,36.53
2023-04-27T06:10:55.740Z,37.04
2023-04-27T06:13:24.006Z,36.11
2023-04-27T06:15:51.692Z,36.09
2023-04-27T06:18:20.700Z,35.62
2023-04-27T06:20:48.328Z,36.85
2023-04-27T06:23:15.910Z,37.31
2023-04-27T06:25:43.944Z,36.03
2023-04-27T06:28:11.765Z,35.73
2023-04-27T06:30:39.840Z,35.41
2023-04-27T06:33:07.621Z,36.69
2023-04-27T06:35:36.650Z,36.73
2023-04-27T06:38:06.682Z,38.01
2023-04-27T06:40:35.483Z,37.89
2023-04-27T06:43:03.103Z,36.75
2023-04-27T06:45:30.820Z,35.07
2023-04-27T06:47:58.457Z,34.65
2023-04-27T06:50:26.192Z,37.77
2023-04-27T06:52:55.108Z,37.03
2023-04-27T06:55:23.480Z,36.31
2023-04-27T06:57:51.302Z,37.58
2023-04-27T07:00:20.824Z,39.74
2023-04-27T07:02:49.446Z,39.10
2023-04-27T07:05:17.168Z,39.83
2023-04-27T07:07:44.722Z,36.65
2023-04-27T07:10:13.625Z,35.10
2023-04-27T07:12:41.664Z,34.35
2023-04-27T07:15:10.157Z,34.52
2023-04-27T07:17:38.015Z,37.21
2023-04-27T07:20:07.073Z,37.06
2023-04-27T07:22:35.142Z,34.37
2023-04-27T07:25:03.854Z,35.00
2023-04-27T07:27:32.954Z,35.24
2023-04-27T07:30:00.494Z,35.18
2023-04-27T07:32:28.199Z,34.24
2023-04-27T07:34:56.722Z,34.81
2023-04-27T07:37:24.856Z,34.99
2023-04-27T07:39:53.092Z,35.46
2023-04-27T07:42:22.161Z,35.66
2023-04-27T07:44:51.218Z,35.70
2023-04-27T07:47:19.604Z,37.13
2023-04-27T07:49:47.394Z,36.43
2023-04-27T07:52:15.060Z,39.19
2023-04-27T07:54:43.247Z,36.80
2023-04-27T07:57:11.964Z,39.40
2023-04-27T07:59:40.778Z,37.65
2023-04-27T08:02:18.995Z,36.68
2023-04-27T08:04:48.169Z,37.97
2023-04-27T08:07:16.328Z,41.10
2023-04-27T08:09:43.950Z,39.69
2023-04-27T08:12:11.712Z,37.04
2023-04-27T08:14:39.342Z,36.50
2023-04-27T08:17:07.002Z,36.50
2023-04-27T08:19:36.015Z,36.11
2023-04-27T08:22:04.015Z,36.19
2023-04-27T08:24:31.685Z,37.90
2023-04-27T08:26:59.300Z,36.65
2023-04-27T08:29:28.790Z,36.87
2023-04-27T08:32:00.129Z,36.08
2023-04-27T08:34:28.252Z,35.80
2023-04-27T08:37:00.283Z,36.92
2023-04-27T08:39:28.725Z,36.59
2023-04-27T08:41:56.379Z,37.43
2023-04-27T08:44:25.001Z,38.54
2023-04-27T08:46:52.809Z,38.79
2023-04-27T08:49:21.038Z,38.76
2023-04-27T08:51:48.897Z,37.84
2023-04-27T08:54:18.262Z,38.90
2023-04-27T08:56:46.136Z,40.15
2023-04-27T08:59:17.733Z,41.40
2023-04-27T09:01:46.902Z,41.80
2023-04-27T09:04:15.253Z,41.89
2023-04-27T09:06:43.126Z,42.30
2023-04-27T09:09:11.194Z,42.07
2023-04-27T09:11:40.705Z,42.69
2023-04-27T09:14:18.251Z,43.21
2023-04-27T09:16:45.997Z,42.79
2023-04-27T09:19:13.829Z,42.46
2023-04-27T09:21:43.076Z,43.53
2023-04-27T09:24:12.532Z,42.21
2023-04-27T09:26:51.572Z,41.82
2023-04-27T09:29:19.130Z,42.00
2023-04-27T09:31:48.930Z,42.20
2023-04-27T09:34:16.889Z,43.36
2023-04-27T09:36:45.042Z,42.94
2023-04-27T09:39:13.214Z,41.82
2023-04-27T09:41:45.124Z,40.68
2023-04-27T09:44:13.607Z,41.35
2023-04-27T09:46:45.253Z,40.97
2023-04-27T09:49:14.870Z,42.40
2023-04-27T09:51:42.653Z,41.50
2023-04-27T09:54:12.258Z,41.16
2023-04-27T09:56:52.782Z,40.64
2023-04-27T09:59:37.288Z,41.72
2023-04-27T10:02:20.909Z,41.69
2023-04-27T10:05:20.863Z,41.33
2023-04-27T10:07:49.232Z,41.48
2023-04-27T10:10:18.410Z,40.53
2023-04-27T10:12:57.652Z,39.90
2023-04-27T10:15:29.757Z,40.55
2023-04-27T10:17:59.163Z,40.09
2023-04-27T10:20:31.780Z,39.78
2023-04-27T10:23:00.219Z,39.19
2023-04-27T10:25:31.615Z,38.76
2023-04-27T10:28:02.561Z,38.23
2023-04-27T10:30:33.349Z,39.89
2023-04-27T10:33:06.328Z,39.33
2023-04-27T10:35:35.236Z,39.07
2023-04-27T10:38:07.886Z,39.06
2023-04-27T10:40:36.712Z,38.95
2023-04-27T10:43:13.458Z,37.50
2023-04-27T10:45:41.455Z,37.28
2023-04-27T10:48:09.366Z,37.46
2023-04-27T10:50:37.005Z,35.79
2023-04-27T10:53:06.523Z,36.34
2023-04-27T10:55:35.697Z,35.37
2023-04-27T10:58:04.695Z,35.27
2023-04-27T11:00:37.326Z,34.85
2023-04-27T11:03:14.834Z,36.42
2023-04-27T11:05:44.572Z,35.45
2023-04-27T11:08:13.962Z,35.35
2023-04-27T11:10:44.901Z,35.42
2023-04-27T11:13:14.904Z,35.26
2023-04-27T11:15:48.973Z,34.93
2023-04-27T11:18:17.833Z,34.75
2023-04-27T11:20:47.898Z,35.64
2023-04-27T11:23:26.201Z,33.87
2023-04-27T11:25:55.263Z,33.62
2023-04-27T11:28:23.710Z,35.61
2023-04-27T11:31:01.685Z,34.11
2023-04-27T11:33:29.591Z,34.45
2023-04-27T11:35:58.224Z,33.29
2023-04-27T11:38:28.095Z,33.13
2023-04-27T11:41:04.682Z,33.12
2023-04-27T11:43:32.721Z,31.82
2023-04-27T11:46:06.939Z,31.39
2023-04-27T11:48:37.439Z,31.99
2023-04-27T11:51:05.798Z,31.68
2023-04-27T11:53:35.174Z,32.34
2023-04-27T11:56:05.237Z,31.87
2023-04-27T11:58:34.823Z,32.77
2023-04-27T12:01:04.321Z,33.30
2023-04-27T12:03:33.098Z,32.03
2023-04-27T12:06:16.171Z,32.80
2023-04-27T12:08:48.458Z,31.73
2023-04-27T12:11:16.221Z,32.98
2023-04-27T12:13:43.816Z,33.78
2023-04-27T12:16:13.573Z,35.03
2023-04-27T12:18:41.354Z,35.65
2023-04-27T12:21:10.222Z,35.78
2023-04-27T12:23:38.278Z,34.83
2023-04-27T12:26:07.498Z,34.41
2023-04-27T12:28:35.404Z,33.06
2023-04-27T12:31:04.862Z,33.59
2023-04-27T12:33:33.835Z,34.45
2023-04-27T12:36:01.662Z,33.78
2023-04-27T12:38:29.266Z,33.25
2023-04-27T12:40:56.971Z,33.16
2023-04-27T12:43:24.610Z,33.06
2023-04-27T12:45:52.390Z,34.17
2023-04-27T12:48:20.196Z,33.20
2023-04-27T12:50:49.140Z,32.88
2023-04-27T12:53:17.182Z,32.79
2023-04-27T12:55:44.931Z,32.37
2023-04-27T12:58:12.525Z,33.46
2023-04-27T13:00:40.216Z,32.70
2023-04-27T13:03:07.974Z,33.58
2023-04-27T13:05:36.552Z,34.54
2023-04-27T13:08:06.642Z,33.96
2023-04-27T13:10:34.259Z,34.78
2023-04-27T13:13:04.039Z,33.98
2023-04-27T13:15:31.643Z,33.13
2023-04-27T13:17:59.430Z,33.80
2023-04-27T13:20:27.166Z,33.46
2023-04-27T13:22:55.016Z,34.06
2023-04-27T13:25:24.526Z,35.59
2023-04-27T13:27:52.369Z,35.31
2023-04-27T13:30:20.197Z,35.76
2023-04-27T13:32:47.873Z,37.19
2023-04-27T13:35:15.768Z,36.09
2023-04-27T13:37:43.460Z,37.07
2023-04-27T13:40:12.480Z,36.44
2023-04-27T13:42:41.680Z,36.46
2023-04-27T13:45:10.342Z,36.78
2023-04-27T13:47:38.049Z,36.69
2023-04-27T13:50:07.334Z,36.71
2023-04-27T13:52:36.119Z,36.86
2023-04-27T13:55:04.155Z,36.11
2023-04-27T13:57:31.807Z,35.52
2023-04-27T14:00:01.361Z,35.87
2023-04-27T14:02:30.015Z,34.76
2023-04-27T14:04:57.853Z,34.50
2023-04-27T14:07:25.556Z,34.45
2023-04-27T14:09:55.389Z,34.13
2023-04-27T14:12:23.041Z,33.73
2023-04-27T14:14:50.718Z,33.65
2023-04-27T14:17:20.795Z,34.28
2023-04-27T14:19:50.517Z,34.85
2023-04-27T14:22:18.188Z,34.15
2023-04-27T14:24:46.575Z,33.56
2023-04-27T14:27:14.415Z,34.65
2023-04-27T14:29:42.034Z,34.79
2023-04-27T14:32:09.737Z,34.75
2023-04-27T14:34:38.669Z,35.29
2023-04-27T14:37:06.794Z,34.80
2023-04-27T14:39:34.835Z,35.12
2023-04-27T14:42:04.025Z,36.53
2023-04-27T14:44:32.112Z,36.18
2023-04-27T14:46:59.786Z,36.63
2023-04-27T14:49:27.542Z,37.18
2023-04-27T14:51:59.366Z,35.99
2023-04-27T14:54:26.900Z,35.71
2023-04-27T14:56:55.561Z,36.18
2023-04-27T14:59:24.081Z,37.23
2023-04-27T15:01:51.751Z,38.06
2023-04-27T15:04:19.676Z,37.78
2023-04-27T15:06:47.994Z,37.25
2023-04-27T15:09:16.987Z,36.90
2023-04-27T15:11:44.645Z,36.41
2023-04-27T15:14:12.475Z,36.35
2023-04-27T15:16:40.240Z,36.99
2023-04-27T15:19:08.414Z,36.67
2023-04-27T15:21:36.196Z,36.86
2023-04-27T15:24:04.873Z,36.33
2023-04-27T15:26:33.904Z,36.47
2023-04-27T15:29:03.769Z,37.13
2023-04-27T15:31:31.618Z,37.31
2023-04-27T15:34:00.275Z,37.68
2023-04-27T15:36:30.660Z,37.05
2023-04-27T15:38:58.848Z,37.51
2023-04-27T15:41:26.671Z,38.23
2023-04-27T15:43:55.685Z,37.19
2023-04-27T15:46:25.371Z,36.94
2023-04-27T15:48:53.997Z,37.36
2023-04-27T15:51:22.162Z,37.29
2023-04-27T15:53:50.639Z,36.37
2023-04-27T15:56:18.209Z,36.47
2023-04-27T15:58:46.561Z,35.97
2023-04-27T16:01:15.564Z,36.08
2023-04-27T16:03:43.533Z,36.80
2023-04-27T16:06:11.705Z,37.69
2023-04-27T16:08:39.321Z,36.32
2023-04-27T16:11:07.217Z,36.93
2023-04-27T16:13:35.988Z,36.97
2023-04-27T16:16:04.262Z,37.53
2023-04-27T16:18:34.719Z,36.81
2023-04-27T16:21:04.003Z,36.75
2023-04-27T16:23:32.882Z,36.04
2023-04-27T16:26:00.498Z,36.28
2023-04-27T16:28:28.681Z,35.91
2023-04-27T16:30:56.473Z,35.00
2023-04-27T16:33:24.065Z,35.04
2023-04-27T16:35:53.114Z,36.12
2023-04-27T16:38:20.892Z,35.75
2023-04-27T16:40:50.065Z,36.15
2023-04-27T16:43:20.552Z,36.70
2023-04-27T16:45:48.895Z,35.57
2023-04-27T16:48:16.928Z,35.65
2023-04-27T16:50:46.977Z,36.46
2023-04-27T16:53:21.987Z,36.59
2023-04-27T16:55:49.592Z,37.75
2023-04-27T16:58:17.306Z,37.67
2023-04-27T17:00:47.068Z,37.36
2023-04-27T17:03:22.189Z,38.01
2023-04-27T17:05:51.168Z,38.25
2023-04-27T17:08:26.284Z,37.98
2023-04-27T17:10:54.961Z,38.14
2023-04-27T17:13:22.575Z,38.21
2023-04-27T17:15:54.286Z,37.58
2023-04-27T17:18:21.977Z,37.79
2023-04-27T17:20:52.246Z,38.02
2023-04-27T17:23:21.442Z,38.06
2023-04-27T17:25:49.478Z,38.37
2023-04-27T17:28:17.193Z,38.33
2023-04-27T17:30:44.999Z,38.40
2023-04-27T17:33:15.116Z,38.13
2023-04-27T17:35:44.466Z,38.26
2023-04-27T17:38:12.976Z,38.40
2023-04-27T17:40:42.773Z,38.18
2023-04-27T17:43:11.615Z,38.33
2023-04-27T17:45:39.320Z,38.37
2023-04-27T17:48:10.671Z,38.84
2023-04-27T17:50:41.471Z,38.96
2023-04-27T17:53:09.267Z,39.62
2023-04-27T17:55:37.563Z,39.65
2023-04-27T17:58:06.753Z,40.02
2023-04-27T18:00:37.524Z,40.06
2023-04-27T18:03:05.924Z,40.39
2023-04-27T18:05:34.305Z,40.56
2023-04-27T18:08:01.913Z,40.57
2023-04-27T18:10:29.802Z,40.95
2023-04-27T18:12:57.702Z,40.90
2023-04-27T18:15:27.945Z,40.83
2023-04-27T18:17:55.791Z,40.46
2023-04-27T18:20:23.534Z,40.51
2023-04-27T18:22:52.282Z,41.16
2023-04-27T18:25:20.928Z,42.01
2023-04-27T18:27:50.975Z,42.36
2023-04-27T18:30:18.938Z,42.98
2023-04-27T18:32:48.251Z,42.88
2023-04-27T18:35:16.310Z,43.04
2023-04-27T18:37:48.056Z,42.99
2023-04-27T18:40:16.948Z,42.65
2023-04-27T18:42:45.609Z,42.52
2023-04-27T18:45:13.308Z,42.67
2023-04-27T18:47:41.163Z,42.67
2023-04-27T18:50:13.091Z,42.96
2023-04-27T18:52:40.891Z,43.43
2023-04-27T18:55:10.225Z,43.31
2023-04-27T18:57:37.855Z,42.84
2023-04-27T19:00:06.323Z,43.73
2023-04-27T19:02:34.151Z,43.88
2023-04-27T19:05:11.280Z,44.03
2023-04-27T19:07:41.681Z,43.51
2023-04-27T19:10:10.694Z,44.10
2023-04-27T19:12:38.476Z,44.51
2023-04-27T19:15:06.876Z,44.74
2023-04-27T19:17:35.187Z,44.87
2023-04-27T19:20:03.642Z,45.74
2023-04-27T19:22:34.299Z,46.16
2023-04-27T19:25:04.354Z,45.78
2023-04-27T19:27:32.113Z,46.43
2023-04-27T19:29:59.711Z,46.10
2023-04-27T19:32:28.356Z,45.96
2023-04-27T19:34:56.930Z,46.63
2023-04-27T19:37:25.236Z,46.21
2023-04-27T19:39:53.090Z,45.79
2023-04-27T19:42:22.126Z,47.14
2023-04-27T19:44:49.812Z,47.41
2023-04-27T19:47:17.605Z,47.16
2023-04-27T19:49:45.985Z,46.99
2023-04-27T19:52:13.856Z,46.83
2023-04-27T19:54:41.814Z,46.83
2023-04-27T19:57:09.530Z,46.83
2023-04-27T19:59:38.902Z,47.41
2023-04-27T20:02:07.619Z,47.49
2023-04-27T20:04:36.958Z,47.14
2023-04-27T20:07:06.440Z,46.88
2023-04-27T20:09:34.610Z,47.01
2023-04-27T20:12:03.675Z,47.09
2023-04-27T20:14:35.083Z,47.23
2023-04-27T20:17:04.740Z,47.95
2023-04-27T20:19:34.002Z,47.24
2023-04-27T20:22:03.025Z,47.44
2023-04-27T20:24:31.296Z,46.90
2023-04-27T20:27:00.586Z,47.13
2023-04-27T20:29:29.409Z,47.82
2023-04-27T20:31:57.226Z,48.08
2023-04-27T20:34:26.254Z,48.19
2023-04-27T20:36:54.173Z,48.16
2023-04-27T20:39:24.223Z,47.86
2023-04-27T20:41:51.956Z,48.27
2023-04-27T20:44:20.709Z,48.73
2023-04-27T20:46:49.440Z,49.18
2023-04-27T20:49:24.616Z,49.24
2023-04-27T20:51:57.421Z,49.81
2023-04-27T20:54:25.481Z,49.61
2023-04-27T20:56:53.112Z,49.50
2023-04-27T20:59:21.038Z,49.89
2023-04-27T21:01:51.954Z,49.89
2023-04-27T21:04:20.229Z,50.06
2023-04-27T21:06:50.714Z,49.70
2023-04-27T21:09:19.807Z,49.49
2023-04-27T21:11:47.477Z,49.82
2023-04-27T21:14:15.654Z,50.21
2023-04-27T21:16:43.502Z,49.86
2023-04-27T21:19:12.954Z,50.75
2023-04-27T21:21:40.974Z,50.88
2023-04-27T21:24:08.820Z,50.84
2023-04-27T21:26:37.797Z,50.44
2023-04-27T21:29:08.087Z,50.89
2023-04-27T21:31:37.418Z,51.65
2023-04-27T21:34:07.388Z,51.82
2023-04-27T21:36:34.985Z,51.93
2023-04-27T21:39:02.570Z,52.02
2023-04-27T21:41:30.331Z,52.76
2023-04-27T21:43:59.289Z,53.40
2023-04-27T21:46:26.971Z,53.47
2023-04-27T21:48:54.553Z,54.03
2023-04-27T21:51:22.180Z,53.34
2023-04-27T21:53:49.755Z,54.02
2023-04-27T21:56:17.335Z,53.72
2023-04-27T21:58:45.860Z,53.53
2023-04-27T22:01:15.052Z,52.94
2023-04-27T22:03:42.768Z,52.69
2023-04-27T22:06:11.787Z,52.32
2023-04-27T22:08:39.405Z,52.68
2023-04-27T22:11:07.845Z,52.88
2023-04-27T22:13:36.641Z,52.49
2023-04-27T22:16:04.340Z,52.53
2023-04-27T22:18:33.366Z,52.70
2023-04-27T22:21:01.261Z,53.45
2023-04-27T22:23:30.481Z,53.77
2023-04-27T22:25:58.403Z,53.53
2023-04-27T22:28:26.302Z,54.35
2023-04-27T22:30:54.194Z,54.06
2023-04-27T22:33:22.057Z,53.65
2023-04-27T22:35:51.203Z,53.56
2023-04-27T22:38:18.842Z,54.07
2023-04-27T22:40:46.738Z,54.30
2023-04-27T22:43:14.571Z,54.80
2023-04-27T22:45:42.285Z,54.92
2023-04-27T22:48:09.950Z,54.80
2023-04-27T22:50:37.614Z,54.51
2023-04-27T22:53:06.561Z,54.44
2023-04-27T22:55:34.197Z,55.16
2023-04-27T22:58:01.884Z,55.63
2023-04-27T23:00:29.900Z,56.00
2023-04-27T23:02:57.689Z,55.68
2023-04-27T23:05:25.773Z,55.80
2023-04-27T23:07:53.383Z,55.79
2023-04-27T23:10:22.579Z,55.67
2023-04-27T23:12:54.876Z,55.83
2023-04-27T23:15:23.843Z,55.50
2023-04-27T23:17:51.417Z,56.37
2023-04-27T23:20:28.077Z,56.52
2023-04-27T23:22:56.789Z,57.09
2023-04-27T23:25:26.227Z,57.41
2023-04-27T23:27:54.002Z,57.01
2023-04-27T23:30:22.230Z,56.43
2023-04-27T23:32:50.127Z,56.66
2023-04-27T23:35:19.083Z,56.58
2023-04-27T23:37:46.782Z,57.14
2023-04-27T23:40:14.585Z,57.59
2023-04-27T23:42:43.519Z,57.29
2023-04-27T23:45:12.127Z,57.45
2023-04-27T23:47:40.057Z,57.68
2023-04-27T23:50:08.520Z,57.97
2023-04-27T23:52:36.290Z,58.17
2023-04-27T23:55:03.946Z,58.33
2023-04-27T23:57:31.721Z,57.95
